createdAt,value
2018-10-07T00:00:35.224Z,7.47
2018-10-07T00:05:39.923Z,7.05
2018-10-07T00:10:44.570Z,6.40
2018-10-07T00:15:49.079Z,5.80
2018-10-07T00:20:53.541Z,6.35
2018-10-07T00:25:58.381Z,5.40
2018-10-07T00:31:03.162Z,5.95
2018-10-07T00:36:08.737Z,5.70
2018-10-07T00:41:13.310Z,5.75
2018-10-07T00:46:18.541Z,5.83
2018-10-07T00:51:23.003Z,5.33
2018-10-07T00:56:27.829Z,5.58
2018-10-07T01:01:39.037Z,5.40
2018-10-07T01:06:43.610Z,4.65
2018-10-07T01:11:48.201Z,5.60
2018-10-07T01:16:53.119Z,5.28
2018-10-07T01:21:57.690Z,5.35
2018-10-07T01:27:01.998Z,5.40
2018-10-07T01:32:06.791Z,4.55
2018-10-07T01:37:11.870Z,4.45
2018-10-07T01:42:17.573Z,4.42
2018-10-07T01:47:22.552Z,4.80
2018-10-07T01:52:27.045Z,4.90
2018-10-07T01:57:31.543Z,4.85
2018-10-07T02:02:36.117Z,4.72
2018-10-07T02:07:42.043Z,4.78
2018-10-07T02:12:46.628Z,4.75
2018-10-07T02:17:51.604Z,4.92
2018-10-07T02:22:56.610Z,4.55
2018-10-07T02:28:00.936Z,5.33
2018-10-07T02:33:05.481Z,4.83
2018-10-07T02:38:10.642Z,4.83
2018-10-07T02:43:15.328Z,5.00
2018-10-07T02:48:19.817Z,4.75
2018-10-07T02:53:24.605Z,5.50
2018-10-07T02:58:29.487Z,5.75
2018-10-07T03:03:34.039Z,6.15
2018-10-07T03:08:38.484Z,5.80
2018-10-07T03:13:43.500Z,5.87
2018-10-07T03:18:47.946Z,5.08
2018-10-07T03:23:53.011Z,5.67
2018-10-07T03:28:57.812Z,6.00
2018-10-07T03:34:02.366Z,5.65
2018-10-07T03:39:08.289Z,4.92
2018-10-07T03:44:13.551Z,5.35
2018-10-07T03:49:18.195Z,5.75
2018-10-07T03:54:22.642Z,5.70
2018-10-07T03:59:27.043Z,6.62
2018-10-07T04:04:31.464Z,6.72
2018-10-07T04:09:35.920Z,6.92
2018-10-07T04:14:40.467Z,6.58
2018-10-07T04:19:45.314Z,6.72
2018-10-07T04:24:50.599Z,6.80
2018-10-07T04:29:55.904Z,6.67
2018-10-07T04:35:00.382Z,6.58
2018-10-07T04:40:05.008Z,6.62
2018-10-07T04:45:10.464Z,6.62
2018-10-07T04:50:15.835Z,6.00
2018-10-07T04:55:20.334Z,6.00
2018-10-07T05:00:25.858Z,6.12
2018-10-07T05:05:30.898Z,6.33
2018-10-07T05:10:51.595Z,6.17
2018-10-07T05:16:00.383Z,7.20
2018-10-07T05:21:05.014Z,6.90
2018-10-07T05:26:09.577Z,7.85
2018-10-07T05:31:14.685Z,6.92
2018-10-07T05:36:19.453Z,7.90
2018-10-07T05:41:24.065Z,6.37
2018-10-07T05:46:28.563Z,6.97
2018-10-07T05:51:33.148Z,6.62
2018-10-07T05:56:38.187Z,8.03
2018-10-07T06:01:44.432Z,6.75
2018-10-07T06:06:49.018Z,6.12
2018-10-07T06:11:53.890Z,6.92
2018-10-07T06:16:59.137Z,7.65
2018-10-07T06:22:04.812Z,6.85
2018-10-07T06:27:10.018Z,6.62
2018-10-07T06:32:14.848Z,7.22
2018-10-07T06:37:20.250Z,7.42
2018-10-07T06:42:25.423Z,8.05
2018-10-07T06:47:35.289Z,7.33
2018-10-07T06:52:40.381Z,7.55
2018-10-07T06:57:46.603Z,7.75
2018-10-07T07:02:51.345Z,7.00
2018-10-07T07:07:56.448Z,6.72
2018-10-07T07:13:01.735Z,7.30
2018-10-07T07:18:07.118Z,7.33
2018-10-07T07:23:14.531Z,6.45
2018-10-07T07:28:22.527Z,7.12
2018-10-07T07:33:27.234Z,7.45
2018-10-07T07:38:31.745Z,8.48
2018-10-07T07:43:37.808Z,9.70
2018-10-07T07:48:44.384Z,8.98
2018-10-07T07:53:50.010Z,8.03
2018-10-07T07:58:55.192Z,8.10
2018-10-07T08:04:00.545Z,9.25
2018-10-07T08:09:13.618Z,8.70
2018-10-07T08:14:18.980Z,9.00
2018-10-07T08:19:24.313Z,9.40
2018-10-07T08:24:29.672Z,9.65
2018-10-07T08:29:35.951Z,10.40
2018-10-07T08:34:44.208Z,12.78
2018-10-07T08:39:50.002Z,13.00
2018-10-07T08:45:00.759Z,8.55
2018-10-07T08:50:08.317Z,9.38
2018-10-07T08:55:18.368Z,7.30
2018-10-07T09:00:27.678Z,7.17
2018-10-07T09:05:33.833Z,7.10
2018-10-07T09:10:39.466Z,7.15
2018-10-07T09:15:44.776Z,6.80
2018-10-07T09:20:49.427Z,7.25
2018-10-07T09:25:54.117Z,6.05
2018-10-07T09:36:27.640Z,4.53
2018-10-07T09:41:32.295Z,5.08
2018-10-07T09:46:37.029Z,5.40
2018-10-07T09:51:42.131Z,5.08
2018-10-07T09:56:46.872Z,4.97
2018-10-07T10:01:52.202Z,5.10
2018-10-07T10:06:57.406Z,5.95
2018-10-07T10:12:03.026Z,4.95
2018-10-07T10:17:10.272Z,4.58
2018-10-07T10:23:23.591Z,5.50
2018-10-07T10:29:06.799Z,5.72
2018-10-07T10:34:15.304Z,5.37
2018-10-07T10:39:28.270Z,5.60
2018-10-07T10:44:41.775Z,4.83
2018-10-07T10:51:29.751Z,4.85
2018-10-07T10:56:42.094Z,4.28
2018-10-07T11:01:53.992Z,3.80
2018-10-07T11:07:11.001Z,5.10
2018-10-07T11:12:28.427Z,3.35
2018-10-07T11:17:41.250Z,3.47
2018-10-07T11:22:53.838Z,3.58
2018-10-07T11:33:41.504Z,4.80
2018-10-07T11:39:28.930Z,4.12
2018-10-07T11:45:46.964Z,4.53
2018-10-07T11:51:01.046Z,4.40
2018-10-07T11:56:05.654Z,3.55
2018-10-07T12:01:10.268Z,3.92
2018-10-07T12:06:14.615Z,3.77
2018-10-07T12:11:19.107Z,4.30
2018-10-07T12:16:23.748Z,4.10
2018-10-07T12:21:28.391Z,3.60
2018-10-07T12:26:32.805Z,2.90
2018-10-07T12:31:37.250Z,3.60
2018-10-07T12:36:41.891Z,4.12
2018-10-07T12:41:47.011Z,3.27
2018-10-07T12:46:51.498Z,3.30
2018-10-07T12:51:59.197Z,3.70
2018-10-07T12:57:07.813Z,4.00
2018-10-07T13:02:13.996Z,4.15
2018-10-07T13:07:24.522Z,4.10
2018-10-07T13:12:33.163Z,3.92
2018-10-07T13:17:39.051Z,3.60
2018-10-07T13:22:45.129Z,3.75
2018-10-07T13:27:49.927Z,4.65
2018-10-07T13:32:54.465Z,3.77
2018-10-07T13:38:00.119Z,4.72
2018-10-07T13:43:05.335Z,3.52
2018-10-07T13:48:13.466Z,3.35
2018-10-07T13:53:18.892Z,3.70
2018-10-07T13:58:24.050Z,3.40
2018-10-07T14:03:29.536Z,2.90
2018-10-07T14:08:36.785Z,3.00
2018-10-07T14:13:41.366Z,3.75
2018-10-07T14:18:53.355Z,2.45
2018-10-07T14:24:12.059Z,2.90
2018-10-07T14:29:17.710Z,2.42
2018-10-07T14:34:23.887Z,2.83
2018-10-07T14:39:28.955Z,2.70
2018-10-07T14:44:33.925Z,2.70
2018-10-07T14:49:39.137Z,2.85
2018-10-07T14:54:44.923Z,2.25
2018-10-07T14:59:49.474Z,2.37
2018-10-07T15:04:54.451Z,1.82
2018-10-07T15:10:00.220Z,2.17
2018-10-07T15:15:05.206Z,2.20
2018-10-07T15:20:09.873Z,2.08
2018-10-07T15:25:16.885Z,2.17
2018-10-07T15:30:21.496Z,2.47
2018-10-07T15:35:25.953Z,1.65
2018-10-07T15:40:31.472Z,2.20
2018-10-07T15:45:36.783Z,2.60
2018-10-07T15:50:41.631Z,2.37
2018-10-07T15:55:46.825Z,2.40
2018-10-07T16:00:51.608Z,2.30
2018-10-07T16:05:56.385Z,2.70
2018-10-07T16:11:01.481Z,2.50
2018-10-07T16:16:06.480Z,2.60
2018-10-07T16:21:11.335Z,3.17
2018-10-07T16:26:16.299Z,2.80
2018-10-07T16:31:22.586Z,2.70
2018-10-07T16:36:27.350Z,3.00
2018-10-07T16:41:32.670Z,2.92
2018-10-07T16:46:38.012Z,2.60
2018-10-07T16:51:42.993Z,2.90
2018-10-07T16:56:47.627Z,2.87
2018-10-07T17:01:52.901Z,3.22
2018-10-07T17:06:58.493Z,2.87
2018-10-07T17:12:02.950Z,3.15
2018-10-07T17:17:07.694Z,2.87
2018-10-07T17:22:12.586Z,3.37
2018-10-07T17:27:17.239Z,3.30
2018-10-07T17:32:22.265Z,3.37
2018-10-07T17:37:27.461Z,2.98
2018-10-07T17:42:33.056Z,3.47
2018-10-07T17:47:38.352Z,3.55
2018-10-07T17:52:43.036Z,3.35
2018-10-07T17:57:47.867Z,3.00
2018-10-07T18:02:52.476Z,3.80
2018-10-07T18:07:57.880Z,3.92
2018-10-07T18:13:02.617Z,3.83
2018-10-07T18:18:08.220Z,3.25
2018-10-07T18:23:13.516Z,3.80
2018-10-07T18:28:18.595Z,3.80
2018-10-07T18:33:23.324Z,3.90
2018-10-07T18:38:28.163Z,3.75
2018-10-07T18:43:33.304Z,4.17
2018-10-07T18:48:38.216Z,3.92
2018-10-07T18:53:42.813Z,4.15
2018-10-07T18:58:48.205Z,4.30
2018-10-07T19:03:52.888Z,4.20
2018-10-07T19:08:58.205Z,5.05
2018-10-07T19:14:03.066Z,4.55
2018-10-07T19:19:08.900Z,4.65
2018-10-07T19:24:14.091Z,4.45
2018-10-07T19:29:18.724Z,4.08
2018-10-07T19:34:23.492Z,4.58
2018-10-07T19:39:28.014Z,4.50
2018-10-07T19:44:32.765Z,4.95
2018-10-07T19:49:37.521Z,5.28
2018-10-07T19:54:43.450Z,5.33
2018-10-07T19:59:48.271Z,5.30
2018-10-07T20:04:53.034Z,4.90
2018-10-07T20:09:58.052Z,4.90
2018-10-07T20:15:02.746Z,5.12
2018-10-07T20:20:07.582Z,5.90
2018-10-07T20:25:13.028Z,4.87
2018-10-07T20:30:18.500Z,5.00
2018-10-07T20:35:23.726Z,5.12
2018-10-07T20:40:28.294Z,4.67
2018-10-07T20:45:32.765Z,4.97
2018-10-07T20:50:37.782Z,5.12
2018-10-07T20:55:42.544Z,5.12
2018-10-07T21:01:06.405Z,6.30
2018-10-07T21:06:20.909Z,5.20
2018-10-07T21:17:16.606Z,4.97
2018-10-07T21:22:31.718Z,5.28
2018-10-07T21:27:48.505Z,4.72
2018-10-07T21:32:58.014Z,4.42
2018-10-07T21:38:03.984Z,4.37
2018-10-07T21:43:11.358Z,4.10
2018-10-07T21:48:16.217Z,4.62
2018-10-07T21:53:24.414Z,4.33
2018-10-07T21:58:31.980Z,3.83
2018-10-07T22:03:38.983Z,4.05
2018-10-07T22:08:50.733Z,3.87
2018-10-07T22:14:00.344Z,3.98
2018-10-07T22:19:09.512Z,3.70
2018-10-07T22:24:46.515Z,3.77
2018-10-07T22:29:57.958Z,3.15
2018-10-07T22:35:02.875Z,3.62
2018-10-07T22:40:07.375Z,3.47
2018-10-07T22:45:12.939Z,3.02
2018-10-07T22:50:17.598Z,3.67
2018-10-07T22:55:22.128Z,3.60
2018-10-07T23:00:27.621Z,3.95
2018-10-07T23:05:31.984Z,3.70
2018-10-07T23:10:36.372Z,3.33
2018-10-07T23:15:40.769Z,3.65
2018-10-07T23:20:45.426Z,3.30
2018-10-07T23:25:50.456Z,3.33
2018-10-07T23:30:54.860Z,4.37
2018-10-07T23:35:59.986Z,5.47
2018-10-07T23:41:04.627Z,4.72
2018-10-07T23:46:09.176Z,6.83
2018-10-07T23:51:13.608Z,6.53
2018-10-07T23:56:18.168Z,6.65
